createdAt,value
2023-04-18T02:17:48.826Z,7.37
2023-04-18T09:19:54.308Z,13.00
2023-04-18T09:22:22.731Z,12.98
2023-04-18T09:24:57.523Z,13.03
2023-04-18T09:27:26.375Z,13.10
2023-04-18T09:29:57.373Z,13.18
2023-04-18T09:33:03.109Z,13.21
2023-04-18T09:35:33.114Z,13.24
2023-04-18T09:38:02.644Z,13.26
2023-04-18T09:40:32.783Z,13.37
2023-04-18T09:43:01.766Z,13.58
2023-04-18T09:45:30.768Z,13.69
2023-04-18T09:47:59.831Z,13.85
2023-04-18T09:50:28.859Z,14.04
2023-04-18T09:52:58.393Z,14.27
2023-04-18T09:55:27.714Z,14.51
2023-04-18T09:57:57.958Z,14.81
2023-04-18T10:00:30.471Z,15.02
2023-04-18T10:03:08.577Z,15.23
2023-04-18T10:05:41.537Z,15.31
2023-04-18T10:08:10.910Z,15.21
2023-04-18T10:10:41.076Z,15.14
2023-04-18T10:13:12.194Z,15.16
2023-04-18T10:15:43.651Z,15.10
2023-04-18T10:18:19.567Z,15.21
2023-04-18T10:20:48.673Z,15.42
2023-04-18T10:23:32.797Z,15.62
2023-04-18T10:26:03.125Z,15.88
2023-04-18T10:28:57.005Z,16.28
2023-04-18T10:31:29.926Z,16.43
2023-04-18T10:34:05.146Z,16.33
2023-04-18T10:36:34.717Z,16.51
2023-04-18T10:39:21.596Z,16.68
2023-04-18T10:41:51.849Z,16.64
2023-04-18T10:44:23.382Z,16.36
2023-04-18T10:46:52.727Z,16.11
2023-04-18T10:49:26.211Z,15.84
2023-04-18T10:52:01.929Z,15.57
2023-04-18T10:54:55.977Z,15.45
2023-04-18T10:57:26.779Z,15.47
2023-04-18T10:59:56.005Z,15.43
2023-04-18T11:02:30.493Z,15.80
2023-04-18T11:05:07.382Z,15.96
2023-04-18T11:07:41.334Z,16.07
2023-04-18T11:10:10.531Z,16.14
2023-04-18T11:12:42.517Z,16.19
2023-04-18T11:15:12.970Z,16.43
2023-04-18T11:17:41.603Z,16.01
2023-04-18T11:20:15.263Z,15.57
2023-04-18T11:22:44.999Z,15.37
2023-04-18T11:25:14.222Z,15.29
2023-04-18T11:27:44.424Z,15.38
2023-04-18T11:30:14.516Z,15.60
2023-04-18T11:32:43.441Z,15.77
2023-04-18T11:35:16.454Z,15.80
2023-04-18T11:37:50.317Z,15.87
2023-04-18T11:40:18.929Z,15.93
2023-04-18T11:42:47.810Z,15.93
2023-04-18T11:45:16.586Z,15.81
2023-04-18T11:47:46.565Z,15.71
2023-04-18T11:50:15.964Z,15.47
2023-04-18T11:52:50.871Z,15.27
2023-04-18T11:55:25.427Z,15.17
2023-04-18T11:57:55.039Z,15.14
2023-04-18T12:00:37.772Z,15.06
2023-04-18T12:03:13.363Z,15.00
2023-04-18T12:05:43.584Z,14.91
2023-04-18T12:08:19.062Z,14.84
2023-04-18T12:10:53.197Z,14.77
2023-04-18T12:13:27.688Z,14.68
2023-04-18T12:15:57.332Z,14.65
2023-04-18T12:18:28.112Z,14.64
2023-04-18T12:21:02.613Z,14.65
2023-04-18T12:23:44.008Z,14.74
2023-04-18T12:26:20.466Z,14.73
2023-04-18T12:28:55.573Z,14.79
2023-04-18T12:31:29.326Z,14.85
2023-04-18T12:34:00.270Z,14.85
2023-04-18T12:36:47.691Z,14.93
2023-04-18T12:39:17.967Z,15.00
2023-04-18T12:41:49.578Z,14.92
2023-04-18T12:44:19.308Z,14.79
2023-04-18T12:46:48.996Z,14.79
2023-04-18T12:49:18.169Z,14.75
2023-04-18T12:51:47.095Z,14.68
2023-04-18T12:54:16.246Z,14.62
2023-04-18T12:56:46.774Z,14.62
2023-04-18T12:59:15.858Z,14.75
2023-04-18T13:01:44.841Z,14.88
2023-04-18T13:04:14.067Z,14.90
2023-04-18T13:07:03.568Z,14.90
2023-04-18T13:09:34.820Z,14.84
2023-04-18T13:12:03.790Z,14.63
2023-04-18T13:14:49.532Z,14.44
2023-04-18T13:17:18.391Z,14.33
2023-04-18T13:19:47.311Z,14.25
2023-04-18T13:22:16.245Z,14.21
2023-04-18T13:24:44.926Z,14.19
2023-04-18T13:27:14.565Z,14.20
2023-04-18T13:29:46.022Z,14.18
2023-04-18T13:32:14.843Z,14.13
2023-04-18T13:34:46.367Z,14.09
2023-04-18T13:37:15.889Z,14.07
2023-04-18T13:39:44.811Z,14.10
2023-04-18T13:42:15.956Z,14.17
2023-04-18T13:44:44.884Z,14.23
2023-04-18T13:47:13.701Z,14.31
2023-04-18T13:55:52.071Z,14.45
2023-04-18T13:58:20.841Z,14.39
2023-04-18T14:00:51.119Z,14.36
2023-04-18T14:03:20.124Z,14.32
2023-04-18T14:05:49.223Z,14.28
2023-04-18T14:08:17.776Z,14.28
2023-04-18T14:10:46.721Z,14.28
2023-04-18T14:13:16.007Z,14.25
2023-04-18T14:18:57.971Z,14.11
2023-04-18T14:21:29.828Z,14.11
2023-04-18T14:23:58.957Z,14.13
2023-04-18T14:26:29.007Z,14.17
2023-04-18T14:29:05.420Z,14.19
2023-04-18T14:31:34.173Z,14.17
2023-04-18T14:34:03.208Z,14.20
2023-04-18T14:36:33.160Z,14.22
2023-04-18T14:39:02.164Z,14.30
2023-04-18T14:41:30.737Z,14.39
2023-04-18T14:43:59.745Z,14.46
2023-04-18T14:46:28.679Z,14.47
2023-04-18T14:48:57.639Z,14.46
2023-04-18T14:51:26.690Z,14.48
2023-04-18T14:53:55.821Z,14.51
2023-04-18T14:56:24.594Z,14.53
2023-04-18T14:58:53.000Z,14.54
2023-04-18T15:01:24.506Z,14.58
2023-04-18T15:03:54.700Z,14.57
2023-04-18T15:06:23.501Z,14.55
2023-04-18T15:08:52.714Z,14.53
2023-04-18T15:11:21.282Z,14.53
2023-04-18T15:14:02.730Z,14.55
2023-04-18T15:17:06.174Z,14.52
2023-04-18T15:19:34.915Z,14.47
2023-04-18T15:22:03.512Z,14.43
2023-04-18T15:24:32.081Z,14.38
2023-04-18T15:27:00.566Z,14.34
2023-04-18T15:29:29.382Z,14.30
2023-04-18T15:32:06.112Z,14.24
2023-04-18T15:34:35.630Z,14.20
2023-04-18T15:37:05.188Z,14.17
2023-04-18T15:39:34.545Z,14.15
2023-04-18T15:42:04.266Z,14.15
2023-04-18T15:44:33.104Z,14.14
2023-04-18T15:47:02.426Z,14.11
2023-04-18T15:49:33.182Z,14.08
2023-04-18T15:52:03.725Z,14.08
2023-04-18T15:54:35.306Z,14.06
2023-04-18T15:57:26.406Z,14.05
2023-04-18T15:59:57.201Z,14.07
2023-04-18T16:02:28.025Z,14.06
2023-04-18T16:05:04.046Z,14.03
2023-04-18T16:07:38.530Z,14.00
2023-04-18T16:10:13.153Z,13.97
2023-04-18T16:12:44.519Z,13.94
2023-04-18T16:15:14.057Z,13.92
2023-04-18T16:17:44.054Z,13.91
2023-04-18T16:20:16.490Z,13.89
2023-04-18T16:22:46.693Z,13.88
2023-04-18T16:25:15.859Z,13.87
2023-04-18T16:27:48.315Z,13.86
2023-04-18T16:30:17.526Z,13.84
2023-04-18T16:32:47.291Z,13.83
2023-04-18T16:35:16.751Z,13.82
2023-04-18T16:37:48.293Z,13.81
2023-04-18T16:40:20.627Z,13.82
2023-04-18T16:42:49.632Z,13.81
2023-04-18T16:52:27.453Z,13.75
2023-04-18T16:54:56.662Z,13.75
2023-04-18T16:57:30.373Z,13.73
2023-04-18T17:00:02.373Z,13.72
2023-04-18T17:02:32.017Z,13.70
2023-04-18T17:05:02.678Z,13.68
2023-04-18T17:07:31.924Z,13.65
2023-04-18T17:10:00.744Z,13.62
2023-04-18T17:12:31.678Z,13.59
2023-04-18T17:15:04.714Z,13.58
2023-04-18T17:17:35.821Z,13.56
2023-04-18T17:20:07.289Z,13.54
2023-04-18T17:22:39.140Z,13.53
2023-04-18T17:29:32.549Z,13.47
2023-04-18T17:32:01.316Z,13.45
2023-04-18T17:34:29.784Z,13.43
2023-04-18T17:36:58.562Z,13.41
2023-04-18T17:39:27.859Z,13.38
2023-04-18T17:41:56.585Z,13.37
2023-04-18T17:44:29.645Z,13.35
2023-04-18T17:46:58.920Z,13.33
2023-04-18T17:49:35.675Z,13.30
2023-04-18T17:52:12.311Z,13.29
2023-04-18T17:54:44.310Z,13.28
2023-04-18T17:57:18.204Z,13.27
2023-04-18T17:59:57.129Z,13.25
2023-04-18T18:02:28.436Z,13.23
2023-04-18T18:05:01.820Z,13.20
2023-04-18T18:07:35.084Z,13.17
2023-04-18T18:10:11.872Z,13.14
2023-04-18T18:12:45.264Z,13.11
2023-04-18T18:15:17.519Z,13.08
2023-04-18T18:17:50.019Z,13.05
2023-04-18T18:20:22.924Z,13.03
2023-04-18T18:22:55.402Z,13.02
2023-04-18T18:25:27.326Z,13.01
2023-04-18T18:28:03.764Z,13.00
2023-04-18T18:30:32.387Z,13.02
2023-04-18T18:33:02.259Z,13.01
2023-04-18T18:35:31.095Z,13.01
2023-04-18T18:37:59.606Z,13.02
2023-04-18T18:40:28.237Z,13.02
2023-04-18T18:42:57.645Z,13.01
2023-04-18T18:45:26.416Z,13.00
2023-04-18T18:47:55.425Z,12.99
2023-04-18T18:50:24.066Z,12.98
2023-04-18T18:52:52.584Z,12.97
2023-04-18T18:55:24.867Z,12.98
2023-04-18T18:57:55.379Z,12.97
2023-04-18T19:00:42.050Z,12.94
2023-04-18T19:03:13.495Z,12.91
2023-04-18T19:05:43.279Z,12.89
2023-04-18T19:08:14.542Z,12.87
2023-04-18T19:10:44.127Z,12.85
2023-04-18T19:13:13.963Z,12.83
2023-04-18T19:15:44.240Z,12.81
2023-04-18T19:18:13.434Z,12.80
2023-04-18T19:20:42.369Z,12.79
2023-04-18T19:23:11.194Z,12.77
2023-04-18T19:25:40.757Z,12.76
2023-04-18T19:28:11.026Z,12.73
2023-04-18T19:30:40.704Z,12.71
2023-04-18T19:33:10.506Z,12.68
2023-04-18T19:35:39.387Z,12.66
2023-04-18T19:38:08.273Z,12.64
2023-04-18T19:40:38.178Z,12.63
2023-04-18T19:43:07.161Z,12.61
2023-04-18T19:45:36.873Z,12.59
2023-04-18T19:48:06.448Z,12.58
2023-04-18T19:50:35.204Z,12.55
2023-04-18T19:53:04.691Z,12.54
2023-04-18T19:55:34.608Z,12.52
2023-04-18T19:58:03.963Z,12.51
2023-04-18T20:00:34.545Z,12.48
2023-04-18T20:03:04.153Z,12.46
2023-04-18T20:05:33.117Z,12.43
2023-04-18T20:08:02.124Z,12.39
2023-04-18T20:10:35.223Z,12.36
2023-04-18T20:13:05.697Z,12.32
2023-04-18T20:15:34.771Z,12.28
2023-04-18T20:18:06.017Z,12.24
2023-04-18T20:20:34.784Z,12.20
2023-04-18T20:23:03.754Z,12.16
2023-04-18T20:25:34.102Z,12.11
2023-04-18T20:28:03.277Z,12.07
2023-04-18T20:30:32.016Z,12.02
2023-04-18T20:33:00.894Z,12.00
2023-04-18T20:35:30.024Z,11.97
2023-04-18T20:38:00.642Z,11.94
2023-04-18T20:40:29.515Z,11.91
2023-04-18T20:42:58.698Z,11.87
2023-04-18T20:45:28.188Z,11.81
2023-04-18T20:47:57.502Z,11.75
2023-04-18T20:50:26.185Z,11.70
2023-04-18T20:52:55.604Z,11.64
2023-04-18T20:55:24.130Z,11.60
2023-04-18T20:57:53.638Z,11.54
2023-04-18T21:00:22.984Z,11.51
2023-04-18T21:02:51.601Z,11.48
2023-04-18T21:09:38.837Z,11.39
2023-04-18T21:12:08.646Z,11.35
2023-04-18T21:14:37.509Z,11.31
2023-04-18T21:17:06.768Z,11.29
2023-04-18T21:19:35.972Z,11.26
2023-04-18T21:22:05.689Z,11.22
2023-04-18T21:24:35.254Z,11.18
2023-04-18T21:27:05.805Z,11.14
2023-04-18T21:29:36.830Z,11.10
2023-04-18T21:32:13.689Z,11.07
2023-04-18T21:34:42.676Z,11.02
2023-04-18T21:37:11.492Z,10.98
2023-04-18T21:39:40.640Z,10.95
2023-04-18T21:42:11.301Z,10.94
2023-04-18T21:44:40.175Z,10.93
2023-04-18T21:47:10.427Z,10.90
2023-04-18T21:49:43.382Z,10.86
2023-04-18T21:52:12.017Z,10.83
2023-04-18T21:54:42.329Z,10.78
2023-04-18T21:57:12.167Z,10.75
2023-04-18T21:59:40.874Z,10.73
2023-04-18T22:02:09.461Z,10.72
2023-04-18T22:04:43.527Z,10.68
2023-04-18T22:07:16.486Z,10.65
2023-04-18T22:09:52.268Z,10.62
2023-04-18T22:12:25.437Z,10.58
2023-04-18T22:19:16.417Z,10.49
2023-04-18T22:21:48.512Z,10.46
2023-04-18T22:24:22.373Z,10.43
2023-04-18T22:26:54.468Z,10.40
2023-04-18T22:29:25.752Z,10.37
2023-04-18T22:31:56.566Z,10.36
2023-04-18T22:34:27.547Z,10.35
2023-04-18T22:36:59.608Z,10.35
2023-04-18T22:39:32.485Z,10.34
2023-04-18T22:42:03.451Z,10.33
2023-04-18T22:44:35.347Z,10.33
2023-04-18T22:47:06.530Z,10.30
2023-04-18T22:49:41.536Z,10.25
2023-04-18T22:52:12.431Z,10.21
2023-04-18T22:54:44.507Z,10.18
2023-04-18T22:57:16.523Z,10.17
2023-04-18T22:59:48.500Z,10.13
2023-04-18T23:02:19.653Z,10.11
2023-04-18T23:11:11.470Z,10.06
2023-04-18T23:13:40.152Z,10.01
2023-04-18T23:16:09.034Z,10.00
2023-04-18T23:18:37.706Z,9.97
2023-04-18T23:21:06.602Z,9.94
2023-04-18T23:23:35.018Z,9.92
2023-04-18T23:26:03.644Z,9.88
2023-04-18T23:28:33.199Z,9.83
2023-04-18T23:31:01.764Z,9.76
2023-04-18T23:33:30.380Z,9.70
2023-04-18T23:35:58.851Z,9.64
2023-04-18T23:38:28.021Z,9.59
2023-04-18T23:40:56.601Z,9.55
2023-04-18T23:43:42.132Z,9.53
2023-04-18T23:46:12.344Z,9.49
2023-04-18T23:48:40.959Z,9.48
2023-04-18T23:51:09.659Z,9.45
2023-04-18T23:53:38.114Z,9.41
2023-04-18T23:56:07.054Z,9.38
2023-04-18T23:58:35.947Z,9.37
